Main page
METAR-TAF:

METAR-TAF

Airports :

Aurillac – Tronquières Airport

Aurillac, France

latitude: 44-53N, longitude: 002-25E, elevation: 639 m

Current weather observation

The report was made 41 minutes ago, at 01:00 UTC
Wind 3 kt from the South/Southwest
Temperature 16°C
Humidity 88%
Pressure 1021 hPa
Visibility 10 km or more
no clouds below 1500 m and no cumulonimbus

METAR: LFLW 220100Z AUTO 21003KT CAVOK 16/14 Q1021

Time: 03:41 (01:41 UTC)

Forecast

The report was made 14 hours and 41 minutes ago, at 11:00 UTC
Forecast valid from 21 at 12 UTC to 21 at 21 UTC
Wind 8 kt from the West/Northwest
Visibility 10 km or more
Scattered clouds at a height of 4000 ft
Probability 40% :
Temporary
from 21 at 12 UTC to 21 at 18 UTC
Few clouds at a height of 5000 ft, Towering cumulus.
Probability 30% :
Temporary
from 21 at 15 UTC to 21 at 18 UTC
Few clouds at a height of 4000 ft, Cumulonimbus.
rain showers

TAF: LFLW 211100Z 2112/2121 30008KT 9999 SCT040 PROB40 TEMPO 2112/2118 FEW050TCU PROB30 TEMPO 2115/2118 SHRA FEW040CB

Weather observations and forecasts of more than 4000 airports (METAR and TAF reports).

The available stations are represented by yellow and red dots on the map.

Hover mouse over dot to see the name of the station.

Then click to see weather observations and forecasts.

To change the map : click on the green buttons with a black cross to zoom in, on the green button with a dash to zoom out, or on the green arrows for adjacent maps.


METAR-TAF: